Cabo San Lucas, Mexico

8:12 AM MST on January 16, 2018 (GMT -0700)
Pedregal | | Change Station

Elev 450 ft 22.88 °N, 109.92 °W | Updated 13 minutes ago

Clear
Clear
69.1 °F
Feels Like 69.1 °F
N
0.0
Wind Variable Wind from North

Today
High -- | Low -- °F
--% Chance of Precip.
Yesterday
High -- | Low -- °F
Precip. -- in
Pressure 30.10 in
Visibility 8.0 miles
Clouds Clear
Dew Point 59 °F
Humidity 71%
Rainfall 0.00 in
Snow Depth Not available.
7:02 AM 5:56 PM
Waning Crescent, 0% visible
METAR MMSL 161454Z 31005KT 8SM SKC 19/09 A3010 RMK SLP/// 5//// 9//
Pressure 30.10 in
Visibility 8.0 miles
Clouds Clear
Dew Point 59 °F
Humidity 71%
Rainfall 0.00 in
Snow Depth Not available.
7:02 AM 5:56 PM
Waning Crescent, 0% visible
METAR MMSL 161454Z 31005KT 8SM SKC 19/09 A3010 RMK SLP/// 5//// 9//

Get Severe Weather Alerts

Thanks for signing up!

Be on the lookout for a verification email in your inbox.

You'll start receiving the daily forecast at 6 AM.

×

10-Day Weather Forecast

No radar image for this location.
×

Almanac

Astronomy

Jan. 16, 2018 Rise Set
Actual Time
Civil Twilight
Nautical Twilight
Astronomical Twilight
Moon
Length of Visible Light
Length of Day
Tomorrow will be .
, % of the Moon is Illuminated

Today's Extremes

Country Highs Country Lows

Community

WunderPhotos

Category 6

Welcome to Category 6. This is the collective home for Weather Underground's featured writeups by Dr. Jeff Masters (right), Bob Henson (left), Chris Burt, and other regular contributors.

Nearby

Air Quality

  Air Quality AQ Index Pollutant
Not available.

Snow Depth

Station Depth Elevation

Earthquake Activity

City Distance Mag. Time & Date
Minimum magnitude displayed is 2.5.

Coastal Water Temperatures

Place Temperature

Stations

Nearby Weather Stations

Station Location Temp. Windchill Dew Point Humidity Wind Precip. Elev Updated Type